sensor_id;sensor_type;location;lat;lon;timestamp;P1;durP1;ratioP1;P2;durP2;ratioP2
1955;SDS011;978;48.314;11.562;2022-08-27T00:02:17;12.00;;;2.13;;
1955;SDS011;978;48.314;11.562;2022-08-27T00:04:43;12.10;;;2.47;;
1955;SDS011;978;48.314;11.562;2022-08-27T00:07:11;12.57;;;2.20;;
1955;SDS011;978;48.314;11.562;2022-08-27T00:09:40;13.03;;;2.40;;
1955;SDS011;978;48.314;11.562;2022-08-27T00:12:09;12.20;;;2.00;;
1955;SDS011;978;48.314;11.562;2022-08-27T00:14:38;12.07;;;2.07;;
1955;SDS011;978;48.314;11.562;2022-08-27T00:17:05;12.17;;;1.80;;
1955;SDS011;978;48.314;11.562;2022-08-27T00:19:33;12.23;;;2.20;;
1955;SDS011;978;48.314;11.562;2022-08-27T00:22:01;12.17;;;2.10;;
1955;SDS011;978;48.314;11.562;2022-08-27T00:24:29;12.20;;;2.00;;
1955;SDS011;978;48.314;11.562;2022-08-27T00:26:56;11.97;;;1.70;;
1955;SDS011;978;48.314;11.562;2022-08-27T00:29:24;12.50;;;2.70;;
1955;SDS011;978;48.314;11.562;2022-08-27T00:31:52;12.27;;;1.73;;
1955;SDS011;978;48.314;11.562;2022-08-27T00:34:19;11.70;;;1.70;;
1955;SDS011;978;48.314;11.562;2022-08-27T00:36:47;12.17;;;2.10;;
1955;SDS011;978;48.314;11.562;2022-08-27T00:39:14;11.90;;;2.03;;
1955;SDS011;978;48.314;11.562;2022-08-27T00:41:42;13.27;;;2.20;;
1955;SDS011;978;48.314;11.562;2022-08-27T00:44:10;12.47;;;2.47;;
1955;SDS011;978;48.314;11.562;2022-08-27T00:46:41;12.17;;;2.00;;
1955;SDS011;978;48.314;11.562;2022-08-27T00:49:13;11.93;;;1.80;;
1955;SDS011;978;48.314;11.562;2022-08-27T00:51:49;12.20;;;2.03;;
1955;SDS011;978;48.314;11.562;2022-08-27T00:54:19;12.03;;;1.90;;
1955;SDS011;978;48.314;11.562;2022-08-27T00:56:47;12.00;;;1.90;;
1955;SDS011;978;48.314;11.562;2022-08-27T00:59:14;13.43;;;2.70;;
1955;SDS011;978;48.314;11.562;2022-08-27T01:01:45;12.50;;;2.87;;
1955;SDS011;978;48.314;11.562;2022-08-27T01:04:36;11.50;;;1.93;;
1955;SDS011;978;48.314;11.562;2022-08-27T01:07:04;12.20;;;2.10;;
1955;SDS011;978;48.314;11.562;2022-08-27T01:09:31;12.07;;;1.90;;
1955;SDS011;978;48.314;11.562;2022-08-27T01:11:59;12.33;;;2.20;;
1955;SDS011;978;48.314;11.562;2022-08-27T01:14:26;12.07;;;1.90;;
1955;SDS011;978;48.314;11.562;2022-08-27T01:16:55;12.00;;;2.00;;
1955;SDS011;978;48.314;11.562;2022-08-27T01:19:25;12.20;;;2.57;;
1955;SDS011;978;48.314;11.562;2022-08-27T01:21:59;12.40;;;2.13;;
1955;SDS011;978;48.314;11.562;2022-08-27T01:24:34;11.63;;;2.07;;
1955;SDS011;978;48.314;11.562;2022-08-27T01:27:08;12.37;;;2.53;;
1955;SDS011;978;48.314;11.562;2022-08-27T01:29:38;13.27;;;2.23;;
1955;SDS011;978;48.314;11.562;2022-08-27T01:32:08;12.57;;;2.57;;
1955;SDS011;978;48.314;11.562;2022-08-27T01:34:40;12.13;;;2.20;;
1955;SDS011;978;48.314;11.562;2022-08-27T01:37:08;12.00;;;1.97;;
1955;SDS011;978;48.314;11.562;2022-08-27T01:39:42;12.00;;;2.50;;
1955;SDS011;978;48.314;11.562;2022-08-27T01:42:13;11.83;;;1.70;;
1955;SDS011;978;48.314;11.562;2022-08-27T01:44:45;12.50;;;2.30;;
1955;SDS011;978;48.314;11.562;2022-08-27T01:47:14;12.40;;;2.20;;
1955;SDS011;978;48.314;11.562;2022-08-27T01:49:43;12.00;;;2.00;;
1955;SDS011;978;48.314;11.562;2022-08-27T01:52:10;11.60;;;2.10;;
1955;SDS011;978;48.314;11.562;2022-08-27T01:54:39;11.93;;;1.90;;
1955;SDS011;978;48.314;11.562;2022-08-27T01:57:06;12.30;;;2.30;;
1955;SDS011;978;48.314;11.562;2022-08-27T01:59:36;12.00;;;2.40;;
1955;SDS011;978;48.314;11.562;2022-08-27T02:02:03;13.37;;;2.20;;
1955;SDS011;978;48.314;11.562;2022-08-27T02:04:31;11.97;;;1.50;;
1955;SDS011;978;48.314;11.562;2022-08-27T02:06:57;12.90;;;2.33;;
1955;SDS011;978;48.314;11.562;2022-08-27T02:09:25;12.00;;;1.90;;
1955;SDS011;978;48.314;11.562;2022-08-27T02:11:53;13.07;;;2.50;;
1955;SDS011;978;48.314;11.562;2022-08-27T02:14:20;12.20;;;1.83;;
1955;SDS011;978;48.314;11.562;2022-08-27T02:16:47;12.10;;;1.90;;
1955;SDS011;978;48.314;11.562;2022-08-27T02:19:14;12.70;;;2.50;;
1955;SDS011;978;48.314;11.562;2022-08-27T02:21:43;12.73;;;2.47;;
1955;SDS011;978;48.314;11.562;2022-08-27T02:24:10;12.07;;;1.93;;
1955;SDS011;978;48.314;11.562;2022-08-27T02:26:37;11.90;;;1.80;;
1955;SDS011;978;48.314;11.562;2022-08-27T02:29:07;12.10;;;1.90;;
1955;SDS011;978;48.314;11.562;2022-08-27T02:31:35;11.93;;;2.50;;
1955;SDS011;978;48.314;11.562;2022-08-27T02:34:02;11.97;;;2.10;;
1955;SDS011;978;48.314;11.562;2022-08-27T02:36:29;12.10;;;2.23;;
1955;SDS011;978;48.314;11.562;2022-08-27T02:38:55;12.07;;;2.07;;
1955;SDS011;978;48.314;11.562;2022-08-27T02:41:22;11.73;;;1.67;;
1955;SDS011;978;48.314;11.562;2022-08-27T02:43:49;12.27;;;2.20;;
1955;SDS011;978;48.314;11.562;2022-08-27T02:46:18;11.80;;;1.93;;
1955;SDS011;978;48.314;11.562;2022-08-27T02:48:46;12.50;;;2.50;;
1955;SDS011;978;48.314;11.562;2022-08-27T02:51:14;11.90;;;1.73;;
1955;SDS011;978;48.314;11.562;2022-08-27T02:53:42;12.17;;;2.00;;
1955;SDS011;978;48.314;11.562;2022-08-27T02:56:10;11.60;;;1.80;;
1955;SDS011;978;48.314;11.562;2022-08-27T02:58:37;11.80;;;1.90;;
1955;SDS011;978;48.314;11.562;2022-08-27T03:01:05;11.70;;;1.80;;
1955;SDS011;978;48.314;11.562;2022-08-27T03:03:33;11.43;;;1.73;;
1955;SDS011;978;48.314;11.562;2022-08-27T03:06:00;12.00;;;1.63;;
1955;SDS011;978;48.314;11.562;2022-08-27T03:08:27;11.97;;;2.23;;
1955;SDS011;978;48.314;11.562;2022-08-27T03:10:54;12.40;;;2.53;;
1955;SDS011;978;48.314;11.562;2022-08-27T03:13:22;11.57;;;1.87;;
1955;SDS011;978;48.314;11.562;2022-08-27T03:15:51;12.30;;;2.00;;
1955;SDS011;978;48.314;11.562;2022-08-27T03:18:19;12.10;;;1.70;;
1955;SDS011;978;48.314;11.562;2022-08-27T03:20:49;13.13;;;2.53;;
1955;SDS011;978;48.314;11.562;2022-08-27T03:23:20;12.17;;;2.33;;
1955;SDS011;978;48.314;11.562;2022-08-27T03:25:53;12.20;;;2.03;;
1955;SDS011;978;48.314;11.562;2022-08-27T03:28:23;12.53;;;2.00;;
1955;SDS011;978;48.314;11.562;2022-08-27T03:30:53;12.30;;;2.50;;
1955;SDS011;978;48.314;11.562;2022-08-27T03:33:22;11.67;;;1.87;;
1955;SDS011;978;48.314;11.562;2022-08-27T03:35:52;11.83;;;2.13;;
1955;SDS011;978;48.314;11.562;2022-08-27T03:38:21;12.90;;;2.87;;
1955;SDS011;978;48.314;11.562;2022-08-27T03:40:49;12.30;;;2.50;;
1955;SDS011;978;48.314;11.562;2022-08-27T03:43:17;12.20;;;2.33;;
1955;SDS011;978;48.314;11.562;2022-08-27T03:45:47;11.67;;;2.30;;
1955;SDS011;978;48.314;11.562;2022-08-27T03:48:16;12.83;;;2.60;;
1955;SDS011;978;48.314;11.562;2022-08-27T03:50:46;12.67;;;2.63;;
1955;SDS011;978;48.314;11.562;2022-08-27T03:53:18;12.37;;;1.80;;
1955;SDS011;978;48.314;11.562;2022-08-27T03:55:46;11.67;;;1.87;;
1955;SDS011;978;48.314;11.562;2022-08-27T03:58:15;12.30;;;2.03;;
1955;SDS011;978;48.314;11.562;2022-08-27T04:00:42;12.87;;;3.07;;
1955;SDS011;978;48.314;11.562;2022-08-27T04:03:11;11.87;;;2.13;;
1955;SDS011;978;48.314;11.562;2022-08-27T04:05:41;12.40;;;2.20;;
1955;SDS011;978;48.314;11.562;2022-08-27T04:08:07;12.03;;;2.10;;
1955;SDS011;978;48.314;11.562;2022-08-27T04:10:38;12.30;;;2.40;;
1955;SDS011;978;48.314;11.562;2022-08-27T04:13:06;12.53;;;2.57;;
1955;SDS011;978;48.314;11.562;2022-08-27T04:15:33;11.90;;;1.80;;
1955;SDS011;978;48.314;11.562;2022-08-27T04:17:59;11.97;;;2.00;;
1955;SDS011;978;48.314;11.562;2022-08-27T04:20:26;11.80;;;2.27;;
1955;SDS011;978;48.314;11.562;2022-08-27T04:22:54;12.10;;;1.90;;
1955;SDS011;978;48.314;11.562;2022-08-27T04:25:22;12.30;;;2.10;;
1955;SDS011;978;48.314;11.562;2022-08-27T04:27:52;12.27;;;1.70;;
1955;SDS011;978;48.314;11.562;2022-08-27T04:30:20;12.03;;;1.70;;
1955;SDS011;978;48.314;11.562;2022-08-27T04:32:48;12.10;;;1.97;;
1955;SDS011;978;48.314;11.562;2022-08-27T04:35:17;11.80;;;2.20;;
1955;SDS011;978;48.314;11.562;2022-08-27T04:37:43;11.70;;;2.00;;
1955;SDS011;978;48.314;11.562;2022-08-27T04:40:10;11.93;;;1.87;;
1955;SDS011;978;48.314;11.562;2022-08-27T04:42:37;12.20;;;2.57;;
1955;SDS011;978;48.314;11.562;2022-08-27T04:45:06;11.90;;;2.33;;
1955;SDS011;978;48.314;11.562;2022-08-27T04:47:33;12.47;;;2.20;;
1955;SDS011;978;48.314;11.562;2022-08-27T04:50:01;12.83;;;2.90;;
1955;SDS011;978;48.314;11.562;2022-08-27T04:52:28;11.90;;;2.67;;
1955;SDS011;978;48.314;11.562;2022-08-27T04:54:56;11.70;;;1.90;;
1955;SDS011;978;48.314;11.562;2022-08-27T04:57:24;11.70;;;1.60;;
1955;SDS011;978;48.314;11.562;2022-08-27T04:59:52;12.13;;;2.07;;
1955;SDS011;978;48.314;11.562;2022-08-27T05:02:23;12.80;;;2.07;;
1955;SDS011;978;48.314;11.562;2022-08-27T05:04:51;11.73;;;2.10;;
1955;SDS011;978;48.314;11.562;2022-08-27T05:07:20;12.03;;;1.80;;
1955;SDS011;978;48.314;11.562;2022-08-27T05:09:46;12.40;;;2.30;;
1955;SDS011;978;48.314;11.562;2022-08-27T05:12:16;12.80;;;2.50;;
1955;SDS011;978;48.314;11.562;2022-08-27T05:14:45;11.73;;;1.80;;
1955;SDS011;978;48.314;11.562;2022-08-27T05:17:11;13.23;;;1.70;;
1955;SDS011;978;48.314;11.562;2022-08-27T05:19:39;12.10;;;2.30;;
1955;SDS011;978;48.314;11.562;2022-08-27T05:22:06;12.10;;;1.90;;
1955;SDS011;978;48.314;11.562;2022-08-27T05:24:33;11.73;;;2.10;;
1955;SDS011;978;48.314;11.562;2022-08-27T05:27:00;11.53;;;1.90;;
1955;SDS011;978;48.314;11.562;2022-08-27T05:29:28;12.17;;;2.00;;
1955;SDS011;978;48.314;11.562;2022-08-27T05:31:56;11.63;;;2.00;;
1955;SDS011;978;48.314;11.562;2022-08-27T05:34:24;12.07;;;1.70;;
1955;SDS011;978;48.314;11.562;2022-08-27T05:36:54;11.70;;;1.70;;
1955;SDS011;978;48.314;11.562;2022-08-27T05:39:22;12.10;;;1.80;;
1955;SDS011;978;48.314;11.562;2022-08-27T05:41:48;11.77;;;1.93;;
1955;SDS011;978;48.314;11.562;2022-08-27T05:44:17;11.90;;;2.20;;
1955;SDS011;978;48.314;11.562;2022-08-27T05:46:44;12.27;;;2.40;;
1955;SDS011;978;48.314;11.562;2022-08-27T05:49:11;13.40;;;2.93;;
1955;SDS011;978;48.314;11.562;2022-08-27T05:51:38;11.50;;;2.30;;
1955;SDS011;978;48.314;11.562;2022-08-27T05:54:07;12.10;;;1.93;;
1955;SDS011;978;48.314;11.562;2022-08-27T05:56:40;12.27;;;2.83;;
1955;SDS011;978;48.314;11.562;2022-08-27T05:59:08;11.93;;;1.80;;
1955;SDS011;978;48.314;11.562;2022-08-27T06:01:53;12.20;;;2.57;;
1955;SDS011;978;48.314;11.562;2022-08-27T06:04:23;12.47;;;2.60;;
1955;SDS011;978;48.314;11.562;2022-08-27T06:06:52;11.97;;;1.97;;
1955;SDS011;978;48.314;11.562;2022-08-27T06:09:21;11.73;;;2.20;;
1955;SDS011;978;48.314;11.562;2022-08-27T06:11:49;11.80;;;2.43;;
1955;SDS011;978;48.314;11.562;2022-08-27T06:14:18;11.60;;;1.80;;
1955;SDS011;978;48.314;11.562;2022-08-27T06:16:44;12.20;;;2.10;;
1955;SDS011;978;48.314;11.562;2022-08-27T06:19:12;12.87;;;2.13;;
1955;SDS011;978;48.314;11.562;2022-08-27T06:21:39;12.37;;;2.33;;
1955;SDS011;978;48.314;11.562;2022-08-27T06:24:07;12.40;;;2.00;;
1955;SDS011;978;48.314;11.562;2022-08-27T06:26:37;13.00;;;2.70;;
1955;SDS011;978;48.314;11.562;2022-08-27T06:29:05;12.40;;;2.40;;
1955;SDS011;978;48.314;11.562;2022-08-27T06:31:34;12.03;;;2.00;;
1955;SDS011;978;48.314;11.562;2022-08-27T06:34:02;11.63;;;1.70;;
1955;SDS011;978;48.314;11.562;2022-08-27T06:36:34;11.90;;;2.30;;
1955;SDS011;978;48.314;11.562;2022-08-27T06:39:03;12.90;;;3.10;;
1955;SDS011;978;48.314;11.562;2022-08-27T06:41:32;11.20;;;1.60;;
1955;SDS011;978;48.314;11.562;2022-08-27T06:44:02;12.50;;;2.20;;
1955;SDS011;978;48.314;11.562;2022-08-27T06:46:30;12.37;;;2.13;;
1955;SDS011;978;48.314;11.562;2022-08-27T06:48:59;11.67;;;1.70;;
1955;SDS011;978;48.314;11.562;2022-08-27T06:51:28;11.57;;;2.00;;
1955;SDS011;978;48.314;11.562;2022-08-27T06:54:00;11.60;;;1.70;;
1955;SDS011;978;48.314;11.562;2022-08-27T06:56:31;12.47;;;2.50;;
1955;SDS011;978;48.314;11.562;2022-08-27T06:59:01;11.87;;;2.30;;
1955;SDS011;978;48.314;11.562;2022-08-27T07:01:34;11.47;;;1.67;;
1955;SDS011;978;48.314;11.562;2022-08-27T07:04:04;12.10;;;1.90;;
1955;SDS011;978;48.314;11.562;2022-08-27T07:06:34;11.90;;;1.90;;
1955;SDS011;978;48.314;11.562;2022-08-27T07:09:03;12.10;;;2.60;;
1955;SDS011;978;48.314;11.562;2022-08-27T07:11:32;12.10;;;2.27;;
1955;SDS011;978;48.314;11.562;2022-08-27T07:14:00;11.63;;;1.77;;
1955;SDS011;978;48.314;11.562;2022-08-27T07:16:30;12.30;;;1.70;;
1955;SDS011;978;48.314;11.562;2022-08-27T07:18:59;11.80;;;1.80;;
1955;SDS011;978;48.314;11.562;2022-08-27T07:21:28;11.23;;;1.90;;
1955;SDS011;978;48.314;11.562;2022-08-27T07:23:56;11.90;;;1.67;;
1955;SDS011;978;48.314;11.562;2022-08-27T07:26:30;11.77;;;1.50;;
1955;SDS011;978;48.314;11.562;2022-08-27T07:28:59;12.00;;;1.53;;
1955;SDS011;978;48.314;11.562;2022-08-27T07:31:29;12.63;;;2.60;;
1955;SDS011;978;48.314;11.562;2022-08-27T07:34:00;11.90;;;1.90;;
1955;SDS011;978;48.314;11.562;2022-08-27T07:36:28;11.70;;;2.13;;
1955;SDS011;978;48.314;11.562;2022-08-27T07:38:57;12.73;;;2.00;;
1955;SDS011;978;48.314;11.562;2022-08-27T07:41:23;13.00;;;1.73;;
1955;SDS011;978;48.314;11.562;2022-08-27T07:43:50;12.90;;;2.13;;
1955;SDS011;978;48.314;11.562;2022-08-27T07:46:37;12.40;;;1.97;;
1955;SDS011;978;48.314;11.562;2022-08-27T07:49:05;12.77;;;2.30;;
1955;SDS011;978;48.314;11.562;2022-08-27T07:51:33;12.67;;;2.33;;
1955;SDS011;978;48.314;11.562;2022-08-27T07:54:02;12.20;;;1.90;;
1955;SDS011;978;48.314;11.562;2022-08-27T07:56:33;12.87;;;1.90;;
1955;SDS011;978;48.314;11.562;2022-08-27T07:59:01;12.27;;;1.70;;
1955;SDS011;978;48.314;11.562;2022-08-27T08:01:31;12.23;;;2.10;;
1955;SDS011;978;48.314;11.562;2022-08-27T08:04:03;13.27;;;2.90;;
1955;SDS011;978;48.314;11.562;2022-08-27T08:06:30;12.53;;;2.60;;
1955;SDS011;978;48.314;11.562;2022-08-27T08:08:58;13.23;;;2.80;;
1955;SDS011;978;48.314;11.562;2022-08-27T08:11:25;12.97;;;2.80;;
1955;SDS011;978;48.314;11.562;2022-08-27T08:13:52;13.10;;;2.40;;
1955;SDS011;978;48.314;11.562;2022-08-27T08:16:19;12.53;;;2.63;;
1955;SDS011;978;48.314;11.562;2022-08-27T08:18:49;12.90;;;2.70;;
1955;SDS011;978;48.314;11.562;2022-08-27T08:21:17;13.20;;;2.53;;
1955;SDS011;978;48.314;11.562;2022-08-27T08:23:44;13.40;;;2.60;;
1955;SDS011;978;48.314;11.562;2022-08-27T08:26:13;13.50;;;3.03;;
1955;SDS011;978;48.314;11.562;2022-08-27T08:28:40;13.00;;;2.83;;
1955;SDS011;978;48.314;11.562;2022-08-27T08:31:07;13.33;;;3.00;;
1955;SDS011;978;48.314;11.562;2022-08-27T08:33:35;12.90;;;2.67;;
1955;SDS011;978;48.314;11.562;2022-08-27T08:36:04;13.20;;;3.20;;
1955;SDS011;978;48.314;11.562;2022-08-27T08:38:36;13.40;;;2.73;;
1955;SDS011;978;48.314;11.562;2022-08-27T08:41:05;13.70;;;3.40;;
1955;SDS011;978;48.314;11.562;2022-08-27T08:43:44;13.43;;;3.20;;
1955;SDS011;978;48.314;11.562;2022-08-27T08:46:16;13.90;;;3.20;;
1955;SDS011;978;48.314;11.562;2022-08-27T08:48:48;13.80;;;3.13;;
1955;SDS011;978;48.314;11.562;2022-08-27T08:51:21;13.60;;;3.40;;
1955;SDS011;978;48.314;11.562;2022-08-27T08:53:52;14.20;;;3.63;;
1955;SDS011;978;48.314;11.562;2022-08-27T08:56:24;14.30;;;4.27;;
1955;SDS011;978;48.314;11.562;2022-08-27T08:58:57;13.60;;;2.83;;
1955;SDS011;978;48.314;11.562;2022-08-27T09:01:27;13.17;;;3.10;;
1955;SDS011;978;48.314;11.562;2022-08-27T09:03:55;14.13;;;3.77;;
1955;SDS011;978;48.314;11.562;2022-08-27T09:06:28;13.97;;;3.20;;
1955;SDS011;978;48.314;11.562;2022-08-27T09:09:10;13.60;;;3.47;;
1955;SDS011;978;48.314;11.562;2022-08-27T09:11:46;13.83;;;3.80;;
1955;SDS011;978;48.314;11.562;2022-08-27T09:14:20;14.63;;;3.77;;
1955;SDS011;978;48.314;11.562;2022-08-27T09:16:57;13.87;;;3.20;;
1955;SDS011;978;48.314;11.562;2022-08-27T09:19:25;14.20;;;4.20;;
1955;SDS011;978;48.314;11.562;2022-08-27T09:21:53;14.20;;;4.00;;
1955;SDS011;978;48.314;11.562;2022-08-27T09:24:30;14.60;;;3.77;;
1955;SDS011;978;48.314;11.562;2022-08-27T09:27:05;15.30;;;4.30;;
1955;SDS011;978;48.314;11.562;2022-08-27T09:29:44;14.00;;;3.90;;
1955;SDS011;978;48.314;11.562;2022-08-27T09:32:12;14.23;;;3.70;;
1955;SDS011;978;48.314;11.562;2022-08-27T09:34:41;14.03;;;3.70;;
1955;SDS011;978;48.314;11.562;2022-08-27T09:37:10;13.97;;;3.40;;
1955;SDS011;978;48.314;11.562;2022-08-27T09:39:55;14.00;;;3.87;;
1955;SDS011;978;48.314;11.562;2022-08-27T09:42:27;14.80;;;4.20;;
1955;SDS011;978;48.314;11.562;2022-08-27T09:44:56;13.67;;;4.07;;
1955;SDS011;978;48.314;11.562;2022-08-27T09:47:23;14.70;;;4.50;;
1955;SDS011;978;48.314;11.562;2022-08-27T09:50:01;14.10;;;3.97;;
1955;SDS011;978;48.314;11.562;2022-08-27T09:52:30;15.40;;;4.30;;
1955;SDS011;978;48.314;11.562;2022-08-27T09:55:01;14.80;;;3.80;;
1955;SDS011;978;48.314;11.562;2022-08-27T09:57:32;14.90;;;4.10;;
1955;SDS011;978;48.314;11.562;2022-08-27T10:00:05;14.30;;;3.80;;
1955;SDS011;978;48.314;11.562;2022-08-27T10:02:36;15.20;;;4.40;;
1955;SDS011;978;48.314;11.562;2022-08-27T10:05:14;15.97;;;4.50;;
1955;SDS011;978;48.314;11.562;2022-08-27T10:07:50;14.80;;;3.97;;
1955;SDS011;978;48.314;11.562;2022-08-27T10:10:25;15.20;;;4.40;;
1955;SDS011;978;48.314;11.562;2022-08-27T10:13:07;15.20;;;4.60;;
1955;SDS011;978;48.314;11.562;2022-08-27T10:15:44;14.10;;;3.50;;
1955;SDS011;978;48.314;11.562;2022-08-27T10:18:18;14.30;;;3.67;;
1955;SDS011;978;48.314;11.562;2022-08-27T10:20:54;14.37;;;4.10;;
1955;SDS011;978;48.314;11.562;2022-08-27T10:23:29;14.60;;;3.73;;
1955;SDS011;978;48.314;11.562;2022-08-27T10:26:10;14.73;;;4.33;;
1955;SDS011;978;48.314;11.562;2022-08-27T10:28:48;15.00;;;4.13;;
1955;SDS011;978;48.314;11.562;2022-08-27T10:31:35;14.83;;;4.47;;
1955;SDS011;978;48.314;11.562;2022-08-27T10:34:13;14.97;;;4.60;;
1955;SDS011;978;48.314;11.562;2022-08-27T10:36:54;14.57;;;4.60;;
1955;SDS011;978;48.314;11.562;2022-08-27T10:39:39;14.53;;;4.23;;
1955;SDS011;978;48.314;11.562;2022-08-27T10:42:19;14.57;;;4.70;;
1955;SDS011;978;48.314;11.562;2022-08-27T10:44:53;14.93;;;4.50;;
1955;SDS011;978;48.314;11.562;2022-08-27T10:47:32;14.20;;;4.37;;
1955;SDS011;978;48.314;11.562;2022-08-27T10:50:14;14.50;;;4.10;;
1955;SDS011;978;48.314;11.562;2022-08-27T10:52:50;14.80;;;3.90;;
1955;SDS011;978;48.314;11.562;2022-08-27T10:55:22;14.47;;;3.43;;
1955;SDS011;978;48.314;11.562;2022-08-27T10:58:03;15.83;;;4.73;;
1955;SDS011;978;48.314;11.562;2022-08-27T11:00:44;14.17;;;3.87;;
1955;SDS011;978;48.314;11.562;2022-08-27T11:03:17;15.33;;;4.57;;
1955;SDS011;978;48.314;11.562;2022-08-27T11:05:51;14.53;;;3.80;;
1955;SDS011;978;48.314;11.562;2022-08-27T11:08:20;14.43;;;4.30;;
1955;SDS011;978;48.314;11.562;2022-08-27T11:10:53;15.00;;;3.97;;
1955;SDS011;978;48.314;11.562;2022-08-27T11:13:28;14.37;;;3.77;;
1955;SDS011;978;48.314;11.562;2022-08-27T11:15:58;15.33;;;4.80;;
1955;SDS011;978;48.314;11.562;2022-08-27T11:18:34;14.43;;;4.00;;
1955;SDS011;978;48.314;11.562;2022-08-27T11:21:06;13.70;;;3.80;;
1955;SDS011;978;48.314;11.562;2022-08-27T11:23:40;15.70;;;4.57;;
1955;SDS011;978;48.314;11.562;2022-08-27T11:26:15;14.80;;;4.13;;
1955;SDS011;978;48.314;11.562;2022-08-27T11:28:46;15.80;;;4.77;;
1955;SDS011;978;48.314;11.562;2022-08-27T11:31:18;15.10;;;4.40;;
1955;SDS011;978;48.314;11.562;2022-08-27T11:33:51;14.57;;;4.07;;
1955;SDS011;978;48.314;11.562;2022-08-27T11:39:28;14.60;;;4.40;;
1955;SDS011;978;48.314;11.562;2022-08-27T11:42:07;14.70;;;4.57;;
1955;SDS011;978;48.314;11.562;2022-08-27T11:44:44;13.80;;;4.13;;
1955;SDS011;978;48.314;11.562;2022-08-27T11:47:18;15.20;;;4.30;;
1955;SDS011;978;48.314;11.562;2022-08-27T11:49:48;14.27;;;3.70;;
1955;SDS011;978;48.314;11.562;2022-08-27T11:52:22;14.30;;;3.80;;
1955;SDS011;978;48.314;11.562;2022-08-27T11:57:39;14.10;;;3.50;;
1955;SDS011;978;48.314;11.562;2022-08-27T12:00:15;14.73;;;4.40;;
1955;SDS011;978;48.314;11.562;2022-08-27T12:02:55;14.40;;;4.00;;
1955;SDS011;978;48.314;11.562;2022-08-27T12:05:23;16.13;;;5.50;;
1955;SDS011;978;48.314;11.562;2022-08-27T12:08:09;14.90;;;4.57;;
1955;SDS011;978;48.314;11.562;2022-08-27T12:10:44;15.77;;;4.33;;
1955;SDS011;978;48.314;11.562;2022-08-27T12:13:21;14.40;;;4.30;;
1955;SDS011;978;48.314;11.562;2022-08-27T12:15:59;14.23;;;3.77;;
1955;SDS011;978;48.314;11.562;2022-08-27T12:18:41;15.60;;;5.30;;
1955;SDS011;978;48.314;11.562;2022-08-27T12:21:27;14.57;;;4.30;;
1955;SDS011;978;48.314;11.562;2022-08-27T12:24:05;14.70;;;4.43;;
1955;SDS011;978;48.314;11.562;2022-08-27T12:26:53;13.77;;;3.80;;
1955;SDS011;978;48.314;11.562;2022-08-27T12:29:26;14.00;;;3.77;;
1955;SDS011;978;48.314;11.562;2022-08-27T12:32:02;14.10;;;3.70;;
1955;SDS011;978;48.314;11.562;2022-08-27T12:34:40;14.23;;;4.23;;
1955;SDS011;978;48.314;11.562;2022-08-27T12:37:10;14.47;;;4.07;;
1955;SDS011;978;48.314;11.562;2022-08-27T12:39:42;14.23;;;3.37;;
1955;SDS011;978;48.314;11.562;2022-08-27T12:42:16;14.70;;;3.90;;
1955;SDS011;978;48.314;11.562;2022-08-27T12:44:46;13.80;;;3.67;;
1955;SDS011;978;48.314;11.562;2022-08-27T12:47:22;14.07;;;3.90;;
1955;SDS011;978;48.314;11.562;2022-08-27T12:49:51;14.80;;;4.37;;
1955;SDS011;978;48.314;11.562;2022-08-27T12:52:37;13.70;;;3.33;;
1955;SDS011;978;48.314;11.562;2022-08-27T12:55:29;13.80;;;4.00;;
1955;SDS011;978;48.314;11.562;2022-08-27T12:58:07;13.90;;;4.20;;
1955;SDS011;978;48.314;11.562;2022-08-27T13:00:46;13.47;;;3.57;;
1955;SDS011;978;48.314;11.562;2022-08-27T13:03:28;13.87;;;4.30;;
1955;SDS011;978;48.314;11.562;2022-08-27T13:05:59;14.20;;;3.50;;
1955;SDS011;978;48.314;11.562;2022-08-27T13:08:27;14.17;;;3.70;;
1955;SDS011;978;48.314;11.562;2022-08-27T13:11:05;15.03;;;4.57;;
1955;SDS011;978;48.314;11.562;2022-08-27T13:13:33;14.27;;;4.20;;
1955;SDS011;978;48.314;11.562;2022-08-27T13:16:01;14.37;;;4.00;;
1955;SDS011;978;48.314;11.562;2022-08-27T13:18:30;14.03;;;3.50;;
1955;SDS011;978;48.314;11.562;2022-08-27T13:21:02;13.70;;;3.60;;
1955;SDS011;978;48.314;11.562;2022-08-27T13:23:36;14.20;;;3.93;;
1955;SDS011;978;48.314;11.562;2022-08-27T13:26:09;15.50;;;4.07;;
1955;SDS011;978;48.314;11.562;2022-08-27T13:28:38;14.27;;;3.43;;
1955;SDS011;978;48.314;11.562;2022-08-27T13:31:07;13.77;;;3.50;;
1955;SDS011;978;48.314;11.562;2022-08-27T13:33:37;14.63;;;3.30;;
1955;SDS011;978;48.314;11.562;2022-08-27T13:36:05;13.97;;;3.53;;
1955;SDS011;978;48.314;11.562;2022-08-27T13:38:34;13.50;;;3.57;;
1955;SDS011;978;48.314;11.562;2022-08-27T13:41:04;13.50;;;3.50;;
1955;SDS011;978;48.314;11.562;2022-08-27T13:43:33;13.20;;;3.00;;
1955;SDS011;978;48.314;11.562;2022-08-27T13:46:04;14.37;;;3.40;;
1955;SDS011;978;48.314;11.562;2022-08-27T13:48:33;13.77;;;3.20;;
1955;SDS011;978;48.314;11.562;2022-08-27T13:51:02;13.27;;;3.30;;
1955;SDS011;978;48.314;11.562;2022-08-27T13:53:31;13.43;;;2.77;;
1955;SDS011;978;48.314;11.562;2022-08-27T13:56:25;15.57;;;3.70;;
1955;SDS011;978;48.314;11.562;2022-08-27T13:58:54;13.30;;;3.37;;
1955;SDS011;978;48.314;11.562;2022-08-27T14:01:31;14.67;;;4.00;;
1955;SDS011;978;48.314;11.562;2022-08-27T14:03:59;14.50;;;4.13;;
1955;SDS011;978;48.314;11.562;2022-08-27T14:06:30;14.53;;;3.30;;
1955;SDS011;978;48.314;11.562;2022-08-27T14:09:07;13.30;;;3.20;;
1955;SDS011;978;48.314;11.562;2022-08-27T14:11:36;13.40;;;3.60;;
1955;SDS011;978;48.314;11.562;2022-08-27T14:14:03;13.70;;;3.27;;
1955;SDS011;978;48.314;11.562;2022-08-27T14:16:31;13.70;;;2.77;;
1955;SDS011;978;48.314;11.562;2022-08-27T14:19:04;14.57;;;4.30;;
1955;SDS011;978;48.314;11.562;2022-08-27T14:21:35;16.57;;;3.90;;
1955;SDS011;978;48.314;11.562;2022-08-27T14:24:04;13.60;;;3.20;;
1955;SDS011;978;48.314;11.562;2022-08-27T14:26:31;13.70;;;3.20;;
1955;SDS011;978;48.314;11.562;2022-08-27T14:28:58;13.37;;;3.30;;
1955;SDS011;978;48.314;11.562;2022-08-27T14:31:27;14.10;;;3.63;;
1955;SDS011;978;48.314;11.562;2022-08-27T14:33:55;13.20;;;3.00;;
1955;SDS011;978;48.314;11.562;2022-08-27T14:36:24;14.23;;;3.70;;
1955;SDS011;978;48.314;11.562;2022-08-27T14:38:56;13.13;;;3.10;;
1955;SDS011;978;48.314;11.562;2022-08-27T14:41:24;14.27;;;3.23;;
1955;SDS011;978;48.314;11.562;2022-08-27T14:43:52;13.47;;;3.40;;
1955;SDS011;978;48.314;11.562;2022-08-27T14:46:22;13.90;;;3.27;;
1955;SDS011;978;48.314;11.562;2022-08-27T14:48:52;13.70;;;3.23;;
1955;SDS011;978;48.314;11.562;2022-08-27T14:51:23;13.30;;;3.20;;
1955;SDS011;978;48.314;11.562;2022-08-27T14:53:53;13.90;;;3.00;;
1955;SDS011;978;48.314;11.562;2022-08-27T14:56:24;13.10;;;2.77;;
1955;SDS011;978;48.314;11.562;2022-08-27T14:58:52;13.47;;;3.27;;
1955;SDS011;978;48.314;11.562;2022-08-27T15:01:19;13.50;;;3.47;;
1955;SDS011;978;48.314;11.562;2022-08-27T15:03:48;13.43;;;2.57;;
1955;SDS011;978;48.314;11.562;2022-08-27T15:06:18;14.00;;;3.30;;
1955;SDS011;978;48.314;11.562;2022-08-27T15:08:51;13.50;;;3.30;;
1955;SDS011;978;48.314;11.562;2022-08-27T15:11:19;13.40;;;3.20;;
1955;SDS011;978;48.314;11.562;2022-08-27T15:13:50;13.50;;;3.20;;
1955;SDS011;978;48.314;11.562;2022-08-27T15:16:25;13.70;;;2.90;;
1955;SDS011;978;48.314;11.562;2022-08-27T15:18:55;13.23;;;3.00;;
1955;SDS011;978;48.314;11.562;2022-08-27T15:21:24;13.40;;;3.17;;
1955;SDS011;978;48.314;11.562;2022-08-27T15:23:56;12.67;;;2.53;;
1955;SDS011;978;48.314;11.562;2022-08-27T15:26:26;13.50;;;3.17;;
1955;SDS011;978;48.314;11.562;2022-08-27T15:28:56;13.80;;;2.90;;